createdAt,value
2022-09-02T00:01:02.724Z,4.50
2022-09-02T00:02:04.983Z,3.60
2022-09-02T00:03:07.443Z,4.00
2022-09-02T00:04:13.081Z,4.70
2022-09-02T00:05:17.372Z,5.10
2022-09-02T00:06:20.558Z,4.70
2022-09-02T00:07:22.603Z,3.40
2022-09-02T00:08:24.842Z,4.20
2022-09-02T00:09:27.453Z,5.40
2022-09-02T00:10:30.838Z,5.30
2022-09-02T00:11:34.538Z,5.00
2022-09-02T00:12:37.205Z,4.00
2022-09-02T00:13:39.440Z,3.80
2022-09-02T00:14:43.570Z,4.00
2022-09-02T00:15:47.059Z,5.00
2022-09-02T00:16:49.445Z,5.40
2022-09-02T00:17:51.741Z,5.10
2022-09-02T00:18:54.146Z,4.60
2022-09-02T00:19:56.379Z,5.30
2022-09-02T00:20:58.970Z,3.10
2022-09-02T00:22:02.883Z,4.80
2022-09-02T00:23:06.815Z,7.80
2022-09-02T00:24:09.635Z,5.90
2022-09-02T00:25:12.193Z,3.00
2022-09-02T00:26:14.888Z,8.80
2022-09-02T00:27:17.072Z,4.60
2022-09-02T00:28:20.276Z,3.82
2022-09-02T00:29:23.498Z,4.18
2022-09-02T00:30:26.836Z,6.20
2022-09-02T00:31:29.116Z,5.40
2022-09-02T00:32:31.543Z,7.50
2022-09-02T00:33:33.931Z,7.00
2022-09-02T00:34:36.637Z,8.80
2022-09-02T00:35:39.048Z,7.00
2022-09-02T00:36:41.301Z,8.00
2022-09-02T00:37:43.425Z,12.30
2022-09-02T00:38:46.472Z,6.70
2022-09-02T00:39:48.577Z,7.09
2022-09-02T00:40:50.843Z,11.70
2022-09-02T00:41:53.304Z,8.20
2022-09-02T00:42:57.243Z,10.00
2022-09-02T00:44:03.286Z,4.00
2022-09-02T00:45:07.868Z,6.00
2022-09-02T00:46:13.183Z,7.40
2022-09-02T00:47:15.841Z,8.50
2022-09-02T00:48:18.422Z,11.00
2022-09-02T00:49:27.101Z,4.55
2022-09-02T00:50:33.145Z,12.90
2022-09-02T00:51:54.565Z,6.60
2022-09-02T00:53:00.313Z,11.70
2022-09-02T00:54:03.956Z,7.10
2022-09-02T00:55:12.489Z,6.80
2022-09-02T00:56:23.255Z,9.20
2022-09-02T00:57:28.993Z,9.60
2022-09-02T00:58:34.560Z,7.80
2022-09-02T00:59:57.095Z,9.00
2022-09-02T01:01:00.411Z,11.20
2022-09-02T01:02:02.742Z,9.40
2022-09-02T01:03:09.427Z,3.20
2022-09-02T01:04:12.205Z,5.80
2022-09-02T01:05:18.456Z,7.09
2022-09-02T01:06:24.121Z,6.70
2022-09-02T01:07:29.699Z,7.50
2022-09-02T01:08:37.075Z,7.20
2022-09-02T01:09:39.603Z,6.80
2022-09-02T01:10:42.838Z,9.30
2022-09-02T01:11:48.123Z,7.30
2022-09-02T01:12:59.154Z,7.20
2022-09-02T01:14:01.487Z,5.50
2022-09-02T01:15:06.223Z,6.70
2022-09-02T01:16:18.528Z,6.50
2022-09-02T01:17:21.691Z,6.60
2022-09-02T01:18:26.792Z,9.20
2022-09-02T01:19:38.136Z,7.00
2022-09-02T01:20:40.441Z,8.00
2022-09-02T01:21:48.410Z,7.60
2022-09-02T01:22:51.871Z,7.40
2022-09-02T01:23:56.163Z,6.90
2022-09-02T01:25:01.965Z,9.20
2022-09-02T01:26:04.508Z,8.40
2022-09-02T01:27:06.703Z,7.30
2022-09-02T01:28:14.259Z,6.50
2022-09-02T01:29:16.453Z,8.30
2022-09-02T01:30:24.074Z,4.20
2022-09-02T01:31:26.323Z,4.50
2022-09-02T01:32:29.296Z,7.00
2022-09-02T01:33:31.796Z,5.00
2022-09-02T01:34:34.288Z,3.55
2022-09-02T01:35:38.524Z,5.30
2022-09-02T01:36:42.079Z,5.60
2022-09-02T01:37:55.702Z,4.30
2022-09-02T01:38:50.068Z,6.00
2022-09-02T01:39:53.597Z,4.40
2022-09-02T01:40:56.613Z,3.90
2022-09-02T01:41:59.457Z,3.90
2022-09-02T01:43:06.897Z,4.70
2022-09-02T01:44:09.481Z,1.80
2022-09-02T01:45:12.237Z,6.50
2022-09-02T01:46:16.408Z,8.90
2022-09-02T01:47:22.476Z,9.90
2022-09-02T01:48:25.342Z,9.10
2022-09-02T01:49:27.755Z,7.20
2022-09-02T01:50:31.358Z,9.30
2022-09-02T01:51:33.812Z,8.80
2022-09-02T01:52:36.331Z,9.90
2022-09-02T01:53:38.491Z,10.30
2022-09-02T01:54:41.510Z,10.50
2022-09-02T01:55:44.372Z,8.10
2022-09-02T01:56:46.958Z,9.50
2022-09-02T01:57:49.005Z,4.20
2022-09-02T01:58:51.072Z,7.20
2022-09-02T01:59:56.364Z,6.70
2022-09-02T02:00:58.659Z,8.70
2022-09-02T02:02:04.075Z,5.40
2022-09-02T02:03:07.752Z,8.80
2022-09-02T02:04:13.322Z,7.00
2022-09-02T02:05:15.569Z,3.80
2022-09-02T02:06:18.776Z,7.40
2022-09-02T02:07:23.768Z,5.90
2022-09-02T02:08:26.463Z,7.70
2022-09-02T02:09:28.629Z,4.70
2022-09-02T02:10:32.785Z,8.20
2022-09-02T02:11:36.029Z,3.80
2022-09-02T02:12:39.816Z,5.10
2022-09-02T02:13:42.110Z,5.00
2022-09-02T02:14:45.310Z,6.70
2022-09-02T02:15:47.517Z,4.40
2022-09-02T02:16:50.858Z,5.30
2022-09-02T02:17:53.209Z,3.40
2022-09-02T02:18:55.556Z,4.50
2022-09-02T02:19:57.724Z,4.60
2022-09-02T02:21:00.271Z,6.00
2022-09-02T02:22:03.455Z,5.00
2022-09-02T02:23:06.317Z,4.40
2022-09-02T02:24:09.126Z,3.91
2022-09-02T02:25:12.816Z,1.82
2022-09-02T02:26:17.308Z,2.00
2022-09-02T02:27:20.061Z,1.30
2022-09-02T02:28:22.359Z,0.64
2022-09-02T02:29:24.982Z,3.50
2022-09-02T02:30:27.635Z,6.80
2022-09-02T02:31:30.153Z,3.70
2022-09-02T02:32:32.737Z,3.50
2022-09-02T02:33:36.245Z,3.60
2022-09-02T02:34:39.335Z,4.00
2022-09-02T02:35:42.636Z,2.40
2022-09-02T02:36:45.359Z,4.09
2022-09-02T02:37:48.106Z,6.70
2022-09-02T02:38:50.260Z,6.60
2022-09-02T02:39:52.987Z,7.50
2022-09-02T02:40:56.897Z,5.30
2022-09-02T02:42:00.001Z,4.50
2022-09-02T02:43:02.152Z,3.10
2022-09-02T02:44:04.728Z,2.50
2022-09-02T02:45:09.141Z,3.60
2022-09-02T02:46:13.796Z,3.40
2022-09-02T02:47:16.824Z,3.09
2022-09-02T02:48:19.517Z,4.18
2022-09-02T02:49:21.686Z,3.80
2022-09-02T02:50:24.819Z,5.10
2022-09-02T02:51:27.737Z,3.30
2022-09-02T02:52:30.893Z,5.00
2022-09-02T02:53:33.330Z,6.70
2022-09-02T02:54:35.676Z,5.40
2022-09-02T02:55:38.327Z,3.30
2022-09-02T02:56:41.266Z,7.80
2022-09-02T02:57:43.950Z,6.00
2022-09-02T02:58:46.196Z,6.60
2022-09-02T02:59:48.884Z,4.60
2022-09-02T03:00:51.633Z,4.50
2022-09-02T03:01:54.923Z,4.00
2022-09-02T03:02:59.495Z,3.36
2022-09-02T03:04:02.369Z,2.70
2022-09-02T03:05:06.761Z,2.40
2022-09-02T03:06:09.738Z,6.10
2022-09-02T03:07:11.888Z,5.20
2022-09-02T03:08:14.748Z,4.40
2022-09-02T03:09:17.828Z,3.45
2022-09-02T03:10:21.030Z,4.80
2022-09-02T03:11:24.065Z,2.50
2022-09-02T03:12:26.235Z,2.70
2022-09-02T03:13:29.463Z,3.00
2022-09-02T03:14:32.318Z,4.60
2022-09-02T03:15:35.776Z,1.70
2022-09-02T03:16:38.157Z,2.90
2022-09-02T03:17:40.217Z,4.30
2022-09-02T03:18:42.183Z,3.33
2022-09-02T03:19:44.532Z,3.40
2022-09-02T03:20:46.978Z,4.10
2022-09-02T03:21:49.155Z,4.70
2022-09-02T03:22:54.601Z,4.00
2022-09-02T03:23:58.296Z,3.10
2022-09-02T03:25:00.984Z,5.90
2022-09-02T03:26:12.085Z,5.09
2022-09-02T03:27:14.270Z,3.70
2022-09-02T03:28:16.710Z,9.10
2022-09-02T03:29:18.957Z,8.30
2022-09-02T03:30:24.975Z,6.36
2022-09-02T03:31:27.550Z,2.80
2022-09-02T03:32:30.612Z,4.27
2022-09-02T03:33:33.799Z,2.70
2022-09-02T03:34:36.392Z,3.36
2022-09-02T03:35:41.428Z,5.50
2022-09-02T03:36:44.363Z,6.20
2022-09-02T03:37:51.370Z,4.90
2022-09-02T03:38:54.315Z,3.30
2022-09-02T03:39:57.121Z,4.60
2022-09-02T03:40:59.485Z,4.30
2022-09-02T03:42:02.213Z,3.30
2022-09-02T03:43:06.554Z,3.00
2022-09-02T03:44:10.016Z,4.70
2022-09-02T03:45:14.312Z,3.60
2022-09-02T03:46:18.789Z,3.40
2022-09-02T03:47:21.917Z,4.90
2022-09-02T03:48:26.470Z,2.50
2022-09-02T03:49:28.626Z,5.90
2022-09-02T03:50:34.825Z,6.50
2022-09-02T03:51:42.970Z,7.00
2022-09-02T03:52:45.556Z,6.60
2022-09-02T03:53:47.808Z,4.20
2022-09-02T03:54:50.555Z,2.70
2022-09-02T03:55:53.301Z,3.00
2022-09-02T03:56:55.947Z,6.40
2022-09-02T03:57:58.901Z,4.40
2022-09-02T03:59:01.528Z,4.50
2022-09-02T04:00:08.773Z,5.60
2022-09-02T04:01:19.656Z,9.40
2022-09-02T04:02:22.185Z,5.30
2022-09-02T04:03:25.053Z,4.80
2022-09-02T04:04:27.560Z,6.00
2022-09-02T04:05:30.022Z,4.00
2022-09-02T04:06:33.660Z,6.60
2022-09-02T04:07:37.331Z,7.80
2022-09-02T04:08:40.612Z,3.40
2022-09-02T04:09:46.623Z,5.70
2022-09-02T04:10:47.474Z,4.80
2022-09-02T04:11:49.708Z,5.10
2022-09-02T04:12:52.438Z,5.50
2022-09-02T04:13:54.882Z,4.20
2022-09-02T04:14:58.765Z,8.80
2022-09-02T04:16:07.451Z,6.50
2022-09-02T04:17:12.116Z,7.20
2022-09-02T04:18:16.259Z,5.50
2022-09-02T04:19:19.451Z,12.00
2022-09-02T04:20:23.120Z,9.00
2022-09-02T04:21:26.295Z,7.60
2022-09-02T04:22:28.440Z,7.10
2022-09-02T04:23:31.176Z,7.70
2022-09-02T04:24:33.820Z,7.70
2022-09-02T04:25:38.845Z,8.90
2022-09-02T04:26:44.892Z,8.70
2022-09-02T04:27:45.926Z,5.70
2022-09-02T04:28:48.981Z,6.70
2022-09-02T04:29:52.189Z,5.30
2022-09-02T04:30:54.982Z,7.00
2022-09-02T04:31:57.358Z,8.64
2022-09-02T04:32:59.427Z,11.30
2022-09-02T04:34:01.963Z,11.00
2022-09-02T04:35:04.953Z,9.40
2022-09-02T04:36:10.151Z,8.10
2022-09-02T04:37:14.722Z,9.40
2022-09-02T04:38:17.750Z,11.00
2022-09-02T04:39:20.237Z,6.00
2022-09-02T04:40:24.384Z,10.80
2022-09-02T04:41:29.612Z,7.30
2022-09-02T04:42:33.912Z,8.70
2022-09-02T04:43:36.714Z,9.20
2022-09-02T04:44:39.290Z,10.90
2022-09-02T04:45:44.856Z,5.80
2022-09-02T04:46:48.453Z,9.10
2022-09-02T04:47:53.371Z,10.40
2022-09-02T04:48:55.718Z,9.90
2022-09-02T04:49:58.233Z,11.40
2022-09-02T04:51:05.643Z,10.10
2022-09-02T04:52:08.444Z,8.60
2022-09-02T04:53:11.477Z,8.30
2022-09-02T04:54:14.438Z,8.70
2022-09-02T04:55:18.187Z,11.60
2022-09-02T04:56:25.061Z,11.70
2022-09-02T04:57:27.363Z,10.30
2022-09-02T04:58:30.990Z,10.80
2022-09-02T04:59:33.099Z,10.20
2022-09-02T05:00:39.199Z,9.90
2022-09-02T05:01:43.973Z,11.00
2022-09-02T05:02:50.084Z,9.30
2022-09-02T05:03:53.609Z,10.30
2022-09-02T05:04:56.059Z,10.60
2022-09-02T05:06:03.075Z,9.40
2022-09-02T05:07:05.272Z,9.40
2022-09-02T05:08:09.722Z,11.90
2022-09-02T05:09:12.068Z,12.40
2022-09-02T05:10:16.494Z,9.40
2022-09-02T05:11:22.169Z,9.09
2022-09-02T05:12:25.062Z,9.60
2022-09-02T05:13:29.112Z,10.00
2022-09-02T05:14:32.310Z,8.60
2022-09-02T05:15:39.736Z,8.10
2022-09-02T05:16:43.178Z,9.80
2022-09-02T05:17:47.571Z,10.10
2022-09-02T05:18:53.674Z,13.10
2022-09-02T05:19:57.565Z,10.30
2022-09-02T05:21:02.236Z,10.80
2022-09-02T05:22:05.434Z,12.00
2022-09-02T05:23:12.402Z,12.60
2022-09-02T05:24:22.148Z,21.10
2022-09-02T05:25:24.562Z,20.90
2022-09-02T05:26:27.588Z,26.40
2022-09-02T05:27:29.971Z,26.10
2022-09-02T05:28:33.771Z,27.20
2022-09-02T05:29:36.708Z,35.40
2022-09-02T05:30:41.718Z,33.30
2022-09-02T05:31:44.583Z,28.30
2022-09-02T05:32:48.242Z,41.50
2022-09-02T05:33:51.418Z,34.70
2022-09-02T05:34:55.402Z,38.30
2022-09-02T05:35:58.087Z,43.30
2022-09-02T05:37:00.602Z,44.80
2022-09-02T05:38:04.221Z,53.70
2022-09-02T05:39:06.661Z,54.10
2022-09-02T05:40:11.479Z,57.80
2022-09-02T05:41:20.408Z,51.80
2022-09-02T05:42:22.766Z,54.60
2022-09-02T05:43:26.598Z,67.50
2022-09-02T05:44:29.782Z,71.50
2022-09-02T05:45:32.796Z,70.20
2022-09-02T05:46:36.304Z,66.82
2022-09-02T05:47:38.716Z,73.20
2022-09-02T05:48:41.556Z,71.30
2022-09-02T05:49:44.043Z,69.20
2022-09-02T05:50:57.287Z,76.90
2022-09-02T05:51:57.795Z,79.20
2022-09-02T05:53:02.902Z,74.80
2022-09-02T05:54:05.246Z,78.20
2022-09-02T05:55:09.158Z,84.50
2022-09-02T05:56:13.696Z,82.10
2022-09-02T05:57:18.247Z,80.00
2022-09-02T05:58:22.338Z,73.80
2022-09-02T05:59:26.508Z,69.90
2022-09-02T06:00:31.430Z,77.80
2022-09-02T06:01:36.688Z,78.09
2022-09-02T06:02:39.018Z,75.40
2022-09-02T06:03:41.939Z,73.50
2022-09-02T06:04:47.362Z,75.20
2022-09-02T06:06:01.702Z,75.50
2022-09-02T06:07:02.225Z,77.80
2022-09-02T06:08:04.136Z,78.00
2022-09-02T06:09:07.531Z,71.20
2022-09-02T06:10:10.155Z,80.80
2022-09-02T06:11:13.224Z,81.30
2022-09-02T06:12:18.602Z,83.50
2022-09-02T06:13:21.138Z,84.80
2022-09-02T06:14:25.945Z,83.10
2022-09-02T06:15:28.541Z,79.80
2022-09-02T06:16:31.091Z,76.00
2022-09-02T06:17:34.818Z,81.80
2022-09-02T06:18:38.188Z,77.45
2022-09-02T06:19:42.312Z,81.30
2022-09-02T06:20:47.373Z,73.40
2022-09-02T06:21:49.996Z,72.80
2022-09-02T06:22:53.569Z,78.20
2022-09-02T06:23:56.033Z,78.70
2022-09-02T06:24:58.262Z,63.60
2022-09-02T06:26:01.491Z,60.00
2022-09-02T06:27:04.809Z,55.40
2022-09-02T06:28:08.014Z,69.90
2022-09-02T06:29:13.004Z,64.70
2022-09-02T06:30:15.671Z,60.70
2022-09-02T06:31:22.293Z,66.20
2022-09-02T06:32:25.041Z,64.80
2022-09-02T06:33:29.067Z,56.70
2022-09-02T06:34:31.547Z,66.20
2022-09-02T06:35:37.081Z,56.22
2022-09-02T06:36:41.277Z,54.70
2022-09-02T06:37:44.215Z,59.40
2022-09-02T06:38:49.565Z,58.10
2022-09-02T06:39:51.897Z,54.00
2022-09-02T06:40:57.693Z,54.90
2022-09-02T06:42:04.373Z,49.90
2022-09-02T06:43:08.397Z,57.20
2022-09-02T06:44:15.160Z,61.80
2022-09-02T06:45:18.773Z,59.50
2022-09-02T06:46:24.705Z,55.90
2022-09-02T06:47:28.948Z,65.50
2022-09-02T06:48:31.655Z,59.27
2022-09-02T06:49:33.902Z,51.90
2022-09-02T06:50:41.863Z,54.80
2022-09-02T06:51:48.141Z,55.50
2022-09-02T06:52:50.940Z,54.90
2022-09-02T06:53:53.850Z,55.20
2022-09-02T06:54:56.826Z,53.30
2022-09-02T06:55:58.925Z,52.70
2022-09-02T06:57:02.110Z,51.60
2022-09-02T06:58:05.258Z,46.60
2022-09-02T06:59:08.204Z,52.73
2022-09-02T07:00:19.640Z,50.30
2022-09-02T07:01:25.422Z,48.80
2022-09-02T07:02:29.054Z,37.80
2022-09-02T07:03:31.290Z,36.50
2022-09-02T07:04:35.779Z,34.90
2022-09-02T07:05:39.699Z,36.40
2022-09-02T07:06:48.127Z,30.50
2022-09-02T07:07:51.626Z,32.90
2022-09-02T07:08:53.714Z,30.10
2022-09-02T07:09:57.750Z,25.30
2022-09-02T07:11:01.596Z,22.50
2022-09-02T07:12:05.969Z,27.40
2022-09-02T07:13:10.055Z,22.90
2022-09-02T07:14:12.821Z,26.60
2022-09-02T07:15:15.362Z,26.50
2022-09-02T07:16:22.755Z,29.40
2022-09-02T07:17:23.901Z,28.70
2022-09-02T07:18:28.836Z,30.70
2022-09-02T07:19:31.397Z,33.27
2022-09-02T07:20:34.166Z,36.50
2022-09-02T07:21:42.168Z,33.50
2022-09-02T07:22:45.003Z,38.40
2022-09-02T07:23:49.071Z,36.40
2022-09-02T07:24:53.676Z,34.70
2022-09-02T07:25:56.118Z,35.80
2022-09-02T07:26:58.416Z,30.00
2022-09-02T07:28:01.557Z,32.40
2022-09-02T07:29:07.900Z,28.10
2022-09-02T07:30:11.932Z,30.80
2022-09-02T07:31:16.343Z,33.60
2022-09-02T07:32:18.807Z,27.60
2022-09-02T07:33:22.600Z,36.90
2022-09-02T07:34:25.548Z,30.20
2022-09-02T07:35:29.743Z,27.50
2022-09-02T07:36:34.740Z,28.91
2022-09-02T07:37:38.076Z,25.70
2022-09-02T07:38:42.531Z,22.60
2022-09-02T07:39:44.659Z,22.73
2022-09-02T07:40:48.019Z,21.90
2022-09-02T07:41:51.979Z,20.73
2022-09-02T07:42:58.647Z,19.70
2022-09-02T07:44:00.250Z,23.00
2022-09-02T07:45:03.804Z,23.20
2022-09-02T07:46:08.309Z,20.70
2022-09-02T07:47:11.692Z,23.70
2022-09-02T07:48:14.951Z,24.30
2022-09-02T07:49:22.061Z,21.00
2022-09-02T07:50:26.834Z,21.50
2022-09-02T07:51:30.795Z,19.20
2022-09-02T07:52:35.243Z,25.10
2022-09-02T07:53:37.750Z,26.00
2022-09-02T07:54:39.840Z,26.50
2022-09-02T07:55:43.966Z,27.70
2022-09-02T07:56:46.304Z,21.50
2022-09-02T07:57:52.387Z,23.60
2022-09-02T07:58:54.980Z,21.50
2022-09-02T07:59:57.370Z,22.60
2022-09-02T08:01:02.501Z,27.20
2022-09-02T08:02:04.962Z,25.00
2022-09-02T08:03:11.145Z,25.80
2022-09-02T08:04:16.981Z,26.80
2022-09-02T08:05:21.736Z,27.40
2022-09-02T08:06:33.664Z,19.40
2022-09-02T08:07:28.962Z,23.90
2022-09-02T08:08:31.267Z,15.90
2022-09-02T08:09:33.184Z,24.10
2022-09-02T08:10:36.821Z,23.90
2022-09-02T08:11:43.327Z,25.60
2022-09-02T08:12:48.129Z,26.10
2022-09-02T08:13:50.835Z,21.70
2022-09-02T08:14:53.086Z,19.70
2022-09-02T08:15:56.356Z,19.20
2022-09-02T08:16:59.625Z,23.30
2022-09-02T08:18:04.103Z,22.80
2022-09-02T08:19:07.890Z,21.40
2022-09-02T08:20:14.026Z,22.30
2022-09-02T08:21:16.672Z,24.50
2022-09-02T08:22:18.761Z,26.00
2022-09-02T08:23:35.980Z,22.60
2022-09-02T08:24:25.309Z,24.10
2022-09-02T08:25:27.397Z,20.10
2022-09-02T08:26:29.559Z,23.50
2022-09-02T08:27:31.961Z,19.10
2022-09-02T08:28:33.999Z,17.90
2022-09-02T08:29:36.174Z,17.00
2022-09-02T08:30:39.470Z,19.20
2022-09-02T08:31:44.166Z,10.10
2022-09-02T08:32:46.158Z,10.80
2022-09-02T08:33:48.520Z,16.40
2022-09-02T08:34:51.291Z,13.00
2022-09-02T08:35:53.362Z,11.50
2022-09-02T08:36:57.240Z,12.70
2022-09-02T08:38:01.821Z,8.60
2022-09-02T08:39:04.307Z,10.10
2022-09-02T08:40:11.204Z,10.70
2022-09-02T08:41:17.023Z,10.70
2022-09-02T08:42:31.111Z,11.10
2022-09-02T08:43:42.997Z,10.00
2022-09-02T08:44:45.768Z,11.10
2022-09-02T08:45:50.999Z,12.00
2022-09-02T08:46:56.895Z,9.30
2022-09-02T08:48:08.785Z,9.20
2022-09-02T08:49:17.284Z,10.10
2022-09-02T08:50:22.532Z,6.90
2022-09-02T08:51:37.573Z,8.90
2022-09-02T08:52:56.457Z,7.20
2022-09-02T08:54:10.954Z,6.80
2022-09-02T08:55:20.669Z,3.60
2022-09-02T08:56:23.437Z,4.70
2022-09-02T08:57:26.620Z,3.30
2022-09-02T08:58:34.981Z,4.00
2022-09-02T08:59:37.888Z,2.00
2022-09-02T09:00:43.943Z,2.10
2022-09-02T09:01:52.411Z,3.20
2022-09-02T09:03:10.608Z,4.10
2022-09-02T09:04:22.038Z,1.80
2022-09-02T09:05:30.853Z,0.10
2022-09-02T09:06:52.197Z,1.50
2022-09-02T09:08:15.791Z,2.10
2022-09-02T09:09:40.232Z,0.20
2022-09-02T09:11:04.343Z,2.10
2022-09-02T09:12:33.055Z,3.80
2022-09-02T09:14:08.574Z,3.20
2022-09-02T09:15:48.665Z,0.50
2022-09-02T09:17:00.108Z,9.60
2022-09-02T09:18:06.031Z,1.20
2022-09-02T09:19:23.389Z,2.90
2022-09-02T09:20:35.459Z,3.40
2022-09-02T09:21:38.729Z,2.40
2022-09-02T09:22:42.808Z,0.40
2022-09-02T09:23:46.934Z,1.10
2022-09-02T09:24:50.127Z,2.00
2022-09-02T09:25:59.596Z,1.20
2022-09-02T09:27:05.063Z,2.70
2022-09-02T09:28:07.151Z,1.20
2022-09-02T09:29:12.166Z,0.20
2022-09-02T09:30:15.773Z,1.00
2022-09-02T09:31:21.080Z,1.40
2022-09-02T09:32:29.542Z,0.90
2022-09-02T09:33:31.758Z,1.00
2022-09-02T09:34:56.508Z,0.70
2022-09-02T09:35:58.615Z,1.00
2022-09-02T09:37:00.989Z,0.00
2022-09-02T09:38:06.592Z,0.20
2022-09-02T09:39:28.163Z,2.10
2022-09-02T09:40:32.047Z,1.70
2022-09-02T09:41:36.662Z,0.80
2022-09-02T09:42:39.194Z,1.50
2022-09-02T09:43:43.229Z,0.00
2022-09-02T09:44:47.433Z,1.00
2022-09-02T09:45:51.388Z,1.10
2022-09-02T09:47:01.130Z,1.10
2022-09-02T09:48:24.966Z,1.30
2022-09-02T09:49:27.763Z,0.80
2022-09-02T09:50:30.110Z,0.82
2022-09-02T09:51:50.287Z,0.80
2022-09-02T09:52:37.373Z,1.00
2022-09-02T09:53:40.035Z,0.70
2022-09-02T09:54:43.752Z,0.00
2022-09-02T09:56:09.588Z,1.10
2022-09-02T09:57:18.212Z,1.10
2022-09-02T09:58:26.157Z,1.00
2022-09-02T09:59:40.692Z,1.40
2022-09-02T10:00:44.113Z,1.00
2022-09-02T10:01:51.205Z,1.30
2022-09-02T10:02:56.289Z,0.80
2022-09-02T10:04:42.218Z,1.00
2022-09-02T10:05:35.004Z,2.10
2022-09-02T10:06:43.007Z,1.30
2022-09-02T10:07:48.730Z,1.50
2022-09-02T10:08:54.486Z,2.30
2022-09-02T10:10:00.630Z,0.40
2022-09-02T10:11:09.322Z,2.00
2022-09-02T10:12:12.905Z,1.00
2022-09-02T10:13:21.813Z,3.90
2022-09-02T10:14:29.766Z,3.00
2022-09-02T10:15:39.622Z,2.30
2022-09-02T10:16:57.585Z,1.00
2022-09-02T10:18:21.136Z,2.00
2022-09-02T10:19:33.761Z,4.10
2022-09-02T10:21:16.697Z,2.40
2022-09-02T10:22:59.991Z,3.20
2022-09-02T10:23:50.327Z,2.10
2022-09-02T10:25:02.260Z,3.60
2022-09-02T10:26:15.648Z,1.00
2022-09-02T10:27:21.356Z,5.20
2022-09-02T10:28:33.087Z,3.50
2022-09-02T10:29:55.547Z,3.70
2022-09-02T10:31:10.835Z,6.50
2022-09-02T10:32:17.074Z,5.90
2022-09-02T10:33:23.101Z,7.80
2022-09-02T10:34:54.933Z,7.40
2022-09-02T10:36:06.450Z,6.30
2022-09-02T10:37:23.659Z,7.50
2022-09-02T10:38:33.191Z,9.30
2022-09-02T10:39:57.013Z,5.80
2022-09-02T10:41:03.915Z,5.70
2022-09-02T10:42:24.887Z,5.60
2022-09-02T10:43:30.520Z,4.60
2022-09-02T10:44:46.543Z,6.70
2022-09-02T10:45:52.295Z,5.90
2022-09-02T10:46:58.099Z,8.60
2022-09-02T10:48:09.282Z,9.40
2022-09-02T10:49:33.316Z,9.20
2022-09-02T10:50:50.138Z,9.40
2022-09-02T10:52:11.528Z,6.50
2022-09-02T10:53:43.269Z,8.80
2022-09-02T10:55:15.102Z,9.50
2022-09-02T10:56:31.139Z,10.60
2022-09-02T10:57:37.196Z,6.90
2022-09-02T10:58:47.600Z,9.80
2022-09-02T11:00:09.343Z,10.20
2022-09-02T11:01:21.148Z,7.60
2022-09-02T11:02:33.165Z,7.40
2022-09-02T11:03:53.964Z,12.10
2022-09-02T11:05:18.813Z,9.90
2022-09-02T11:06:31.682Z,9.20
2022-09-02T11:07:57.088Z,7.70
2022-09-02T11:09:23.186Z,9.80
2022-09-02T11:10:46.721Z,13.80
2022-09-02T11:11:58.265Z,13.30
2022-09-02T11:13:21.446Z,10.40
2022-09-02T11:14:30.173Z,10.20
2022-09-02T11:16:04.939Z,11.80
2022-09-02T11:17:32.059Z,10.70
2022-09-02T11:18:49.982Z,9.80
2022-09-02T11:20:05.822Z,8.40
2022-09-02T11:21:36.838Z,12.10
2022-09-02T11:22:54.291Z,12.50
2022-09-02T11:24:02.531Z,10.60
2022-09-02T11:25:14.261Z,7.00
2022-09-02T11:26:38.959Z,12.50
2022-09-02T11:27:49.180Z,12.10
2022-09-02T11:29:00.958Z,8.70
2022-09-02T11:30:10.143Z,9.80
2022-09-02T11:31:35.730Z,7.20
2022-09-02T11:32:44.334Z,9.50
2022-09-02T11:35:07.823Z,10.20
2022-09-02T11:36:11.543Z,12.90
2022-09-02T11:37:35.833Z,10.00
2022-09-02T11:39:00.395Z,11.50
2022-09-02T11:40:30.363Z,12.50
2022-09-02T11:41:38.443Z,14.60
2022-09-02T11:42:33.725Z,12.60
2022-09-02T11:43:48.778Z,11.40
2022-09-02T11:45:01.467Z,13.10
2022-09-02T11:46:14.067Z,10.90
2022-09-02T11:47:28.096Z,11.10
2022-09-02T11:49:02.812Z,13.40
2022-09-02T11:50:24.119Z,10.80
2022-09-02T11:51:44.926Z,14.10
2022-09-02T11:52:59.870Z,11.90
2022-09-02T11:54:04.800Z,13.50
2022-09-02T11:55:17.144Z,12.90
2022-09-02T11:56:41.583Z,14.90
2022-09-02T11:57:53.229Z,19.30
2022-09-02T11:58:55.521Z,15.40
2022-09-02T12:00:01.153Z,13.40
2022-09-02T12:01:15.902Z,16.60
2022-09-02T12:02:44.578Z,15.10
2022-09-02T12:04:16.169Z,14.50
2022-09-02T12:05:14.548Z,14.90
2022-09-02T12:06:21.222Z,16.30
2022-09-02T12:07:26.437Z,14.30
2022-09-02T12:08:35.660Z,10.50
2022-09-02T12:09:48.211Z,14.40
2022-09-02T12:10:53.988Z,14.80
2022-09-02T12:11:56.088Z,13.10
2022-09-02T12:13:01.675Z,15.10
2022-09-02T12:14:26.901Z,16.40
2022-09-02T12:15:30.869Z,17.90
2022-09-02T12:16:42.332Z,14.90
2022-09-02T12:17:50.645Z,9.00
2022-09-02T12:18:57.635Z,16.30
2022-09-02T12:19:59.733Z,15.40
2022-09-02T12:21:06.097Z,17.45
2022-09-02T12:22:20.683Z,15.90
2022-09-02T12:23:52.379Z,15.70
2022-09-02T12:24:57.133Z,12.80
2022-09-02T12:26:02.035Z,17.80
2022-09-02T12:27:07.708Z,8.00
2022-09-02T12:28:26.071Z,17.40
2022-09-02T12:29:31.979Z,15.00
2022-09-02T12:30:59.062Z,16.60
2022-09-02T12:32:02.183Z,17.30
2022-09-02T12:33:12.370Z,17.09
2022-09-02T12:34:25.122Z,19.20
2022-09-02T12:35:37.431Z,17.60
2022-09-02T12:36:45.793Z,21.00
2022-09-02T12:37:56.930Z,17.00
2022-09-02T12:39:26.287Z,19.20
2022-09-02T12:40:33.801Z,17.10
2022-09-02T12:41:39.526Z,16.70
2022-09-02T12:42:48.343Z,20.10
2022-09-02T12:43:58.435Z,18.20
2022-09-02T12:45:13.250Z,13.40
2022-09-02T12:46:28.701Z,12.60
2022-09-02T12:47:52.917Z,16.40
2022-09-02T12:49:10.967Z,15.60
2022-09-02T12:50:52.179Z,18.60
2022-09-02T12:51:57.822Z,15.50
2022-09-02T12:53:25.101Z,17.70
2022-09-02T12:54:43.101Z,19.60
2022-09-02T12:55:59.122Z,20.00
2022-09-02T12:57:02.598Z,17.70
2022-09-02T12:58:12.864Z,21.00
2022-09-02T12:59:30.646Z,21.70
2022-09-02T13:00:40.194Z,19.40
2022-09-02T13:02:01.054Z,21.40
2022-09-02T13:03:19.027Z,21.20
2022-09-02T13:04:58.633Z,20.20
2022-09-02T13:06:33.490Z,19.70
2022-09-02T13:07:42.140Z,23.00
2022-09-02T13:08:54.489Z,19.60
2022-09-02T13:10:23.118Z,21.00
2022-09-02T13:11:38.285Z,19.30
2022-09-02T13:13:12.429Z,21.20
2022-09-02T13:14:27.012Z,19.80
2022-09-02T13:16:04.585Z,20.90
2022-09-02T13:17:36.209Z,21.90
2022-09-02T13:20:13.229Z,20.70
2022-09-02T13:21:45.960Z,20.40
2022-09-02T13:22:54.444Z,22.50
2022-09-02T13:24:01.443Z,20.70
2022-09-02T13:25:31.445Z,18.40
2022-09-02T13:26:53.378Z,21.20
2022-09-02T13:28:17.680Z,22.40
2022-09-02T13:29:39.676Z,16.30
2022-09-02T13:30:54.857Z,18.10
2022-09-02T13:32:16.314Z,17.50
2022-09-02T13:33:18.948Z,21.90
2022-09-02T13:34:22.524Z,19.50
2022-09-02T13:35:27.244Z,23.90
2022-09-02T13:36:33.114Z,20.90
2022-09-02T13:37:38.342Z,22.70
2022-09-02T13:38:40.569Z,24.10
2022-09-02T13:39:42.764Z,26.00
2022-09-02T13:40:46.284Z,12.40
2022-09-02T13:41:49.073Z,15.10
2022-09-02T13:42:54.348Z,19.90
2022-09-02T13:44:12.897Z,22.30
2022-09-02T13:45:18.681Z,25.50
2022-09-02T13:46:22.674Z,23.80
2022-09-02T13:47:27.406Z,20.00
2022-09-02T13:48:34.787Z,21.90
2022-09-02T13:49:40.491Z,22.90
2022-09-02T13:50:45.720Z,27.70
2022-09-02T13:51:50.320Z,32.00
2022-09-02T13:55:05.858Z,33.60
2022-09-02T13:56:11.573Z,27.60
2022-09-02T13:57:17.277Z,27.10
2022-09-02T13:58:32.241Z,26.80
2022-09-02T13:59:37.977Z,25.30
2022-09-02T14:00:41.119Z,23.00
2022-09-02T14:01:43.596Z,19.50
2022-09-02T14:02:59.673Z,24.60
2022-09-02T14:05:17.036Z,23.60
2022-09-02T14:06:24.882Z,17.60
2022-09-02T14:07:39.002Z,23.20
2022-09-02T14:08:41.720Z,22.40
2022-09-02T14:09:45.340Z,29.80
2022-09-02T14:10:50.389Z,23.90
2022-09-02T14:11:54.410Z,27.30
2022-09-02T14:12:58.229Z,29.00
2022-09-02T14:14:00.543Z,25.70
2022-09-02T14:15:05.045Z,25.40
2022-09-02T14:17:38.951Z,26.60
2022-09-02T14:18:45.661Z,29.09
2022-09-02T14:19:50.724Z,23.30
2022-09-02T14:21:19.062Z,26.10
2022-09-02T14:22:28.050Z,27.60
2022-09-02T14:23:32.258Z,24.10
2022-09-02T14:24:39.886Z,28.10
2022-09-02T14:25:52.753Z,30.90
2022-09-02T14:26:58.992Z,26.90
2022-09-02T14:28:05.571Z,29.10
2022-09-02T14:29:10.556Z,26.30
2022-09-02T14:30:14.916Z,32.50
2022-09-02T14:31:28.902Z,32.80
2022-09-02T14:32:32.120Z,30.10
2022-09-02T14:33:45.022Z,30.90
2022-09-02T14:34:49.308Z,28.50
2022-09-02T14:36:07.345Z,28.60
2022-09-02T14:37:22.246Z,25.00
2022-09-02T14:38:26.344Z,28.80
2022-09-02T14:39:28.641Z,28.60
2022-09-02T14:40:36.838Z,32.50
2022-09-02T14:41:45.421Z,30.50
2022-09-02T14:42:56.600Z,23.50
2022-09-02T14:44:01.525Z,24.20
2022-09-02T14:45:03.863Z,31.80
2022-09-02T14:46:08.911Z,32.30